Time;durP1;ratioP1;P1;durP2;ratioP2;P2;SDS_P1;SDS_P2;PMS_P1;PMS_P2;Temp;Humidity;BMP_temperature;BMP_pressure;BME280_temperature;BME280_humidity;BME280_pressure;Samples;Min_cycle;Max_cycle;Signal;HPM_P1;HPM_P2
2023/10/19 00:01:56;;;;;;;16.48;8.20;;;8.70;99.90;;;;;;5018040;28;20353;-69
2023/10/19 00:04:22;;;;;;;14.13;8.02;;;8.70;99.90;;;;;;5013108;28;20050;-68
2023/10/19 00:06:48;;;;;;;15.20;8.27;;;8.70;99.90;;;;;;5022317;28;20478;-68
2023/10/19 00:09:15;;;;;;;;;;;8.70;99.90;;;;;;5017775;28;20060;-69
2023/10/19 00:11:41;;;;;;;13.85;7.68;;;8.70;99.90;;;;;;5021328;28;19967;-68
2023/10/19 00:14:15;;;;;;;15.53;7.77;;;8.70;99.90;;;;;;5019383;28;20481;-68
2023/10/19 00:17:00;;;;;;;13.70;7.68;;;8.70;99.90;;;;;;5018901;28;20037;-69
2023/10/19 00:19:27;;;;;;;17.48;9.07;;;8.70;99.90;;;;;;5014898;28;20449;-68
2023/10/19 00:22:08;;;;;;;18.20;8.93;;;8.60;99.90;;;;;;5009086;28;20433;-69
2023/10/19 00:24:34;;;;;;;15.65;8.55;;;8.70;99.90;;;;;;5013934;28;20395;-69
2023/10/19 00:27:05;;;;;;;17.15;9.50;;;8.70;99.90;;;;;;5014609;28;20081;-69
2023/10/19 00:29:32;;;;;;;15.75;8.52;;;8.70;99.90;;;;;;5013667;28;20398;-68
2023/10/19 00:31:59;;;;;;;20.77;9.18;;;8.60;99.90;;;;;;5014004;28;20128;-69
2023/10/19 00:34:29;;;;;;;16.75;9.25;;;8.60;99.90;;;;;;5010520;28;20060;-69
2023/10/19 00:36:56;;;;;;;15.73;8.68;;;8.60;99.90;;;;;;5013116;28;20513;-69
2023/10/19 00:39:27;;;;;;;17.08;9.15;;;8.60;99.90;;;;;;5015089;28;20120;-69
2023/10/19 00:41:58;;;;;;;15.43;8.82;;;8.60;99.90;;;;;;5019352;28;20120;-69
2023/10/19 00:45:07;;;;;;;17.00;8.93;;;8.60;99.90;;;;;;5012316;28;20057;-69
2023/10/19 00:47:13;;;;;;;18.48;10.38;;;8.60;99.90;;;;;;5011098;28;20473;-68
2023/10/19 00:49:44;;;;;;;17.05;9.07;;;8.60;99.90;;;;;;5014886;28;20045;-73
2023/10/19 00:52:19;;;;;;;18.25;9.82;;;8.60;99.90;;;;;;5011842;28;20046;-68
2023/10/19 00:54:55;;;;;;;20.70;9.98;;;8.60;99.90;;;;;;5022620;28;20056;-69
2023/10/19 00:57:22;;;;;;;19.58;9.00;;;8.50;99.90;;;;;;5041085;28;20054;-69
2023/10/19 00:59:53;;;;;;;18.08;9.10;;;8.60;99.90;;;;;;5019566;28;20037;-69
2023/10/19 01:02:21;;;;;;;16.40;10.02;;;8.60;99.90;;;;;;5020721;28;20045;-69
2023/10/19 01:05:00;;;;;;;17.85;9.73;;;8.60;99.90;;;;;;5023018;28;20159;-69
2023/10/19 01:07:28;;;;;;;17.77;10.05;;;8.60;99.90;;;;;;5021264;28;20033;-69
2023/10/19 01:09:56;;;;;;;18.88;9.95;;;8.60;99.90;;;;;;4994818;28;20184;-69
2023/10/19 01:12:32;;;;;;;19.45;9.88;;;8.60;99.90;;;;;;5013441;28;20044;-69
2023/10/19 01:15:10;;;;;;;14.82;9.23;;;8.60;99.90;;;;;;5015590;28;20100;-69
2023/10/19 01:17:38;;;;;;;19.80;9.15;;;8.60;99.90;;;;;;5009874;28;20049;-69
2023/10/19 01:20:17;;;;;;;18.02;9.27;;;8.60;99.90;;;;;;5013741;28;20356;-69
2023/10/19 01:26:27;;;;;;;15.73;9.05;;;8.60;99.90;;;;;;5008001;28;20072;-69
2023/10/19 01:31:16;;;;;;;17.95;9.95;;;8.70;99.90;;;;;;5018430;28;20038;-69
2023/10/19 01:33:45;;;;;;;17.25;10.10;;;8.60;99.90;;;;;;5015718;28;20041;-69
2023/10/19 01:36:24;;;;;;;16.33;9.38;;;8.60;99.90;;;;;;5017945;28;20318;-69
2023/10/19 01:38:53;;;;;;;17.48;9.45;;;8.60;99.90;;;;;;5016411;28;20077;-70
2023/10/19 01:41:19;;;;;;;17.60;9.88;;;8.60;99.90;;;;;;5010863;28;20044;-69
2023/10/19 01:43:48;;;;;;;18.05;9.98;;;8.60;99.90;;;;;;5017985;28;20046;-69
2023/10/19 01:46:25;;;;;;;18.70;9.50;;;8.60;99.90;;;;;;5014442;28;20042;-70
2023/10/19 01:48:56;;;;;;;18.27;10.07;;;8.60;99.90;;;;;;5018311;28;20042;-70
2023/10/19 01:51:25;;;;;;;16.98;9.85;;;8.60;99.90;;;;;;5017623;28;20087;-70
2023/10/19 01:53:51;;;;;;;16.48;8.57;;;8.60;99.90;;;;;;5014022;28;20446;-70
2023/10/19 01:56:21;;;;;;;17.80;9.68;;;8.60;99.90;;;;;;5010994;28;20033;-69
2023/10/19 01:58:47;;;;;;;16.63;9.57;;;8.60;99.90;;;;;;5016780;28;22141;-69
2023/10/19 02:01:20;;;;;;;16.73;9.73;;;8.60;99.90;;;;;;5016427;28;20038;-69
2023/10/19 02:03:47;;;;;;;18.15;9.65;;;8.60;99.90;;;;;;5002947;28;20079;-69
2023/10/19 02:06:19;;;;;;;15.95;8.90;;;8.60;99.90;;;;;;5020279;28;20053;-69
2023/10/19 02:11:45;;;;;;;16.38;9.15;;;8.60;99.90;;;;;;5011086;28;20132;-70
2023/10/19 02:14:14;;;;;;;16.60;8.77;;;8.70;99.90;;;;;;5017975;28;20059;-69
2023/10/19 02:16:42;;;;;;;18.58;9.10;;;8.70;99.90;;;;;;5013466;28;20589;-69
2023/10/19 02:19:08;;;;;;;14.70;7.35;;;8.70;99.90;;;;;;5017715;28;20214;-68
2023/10/19 02:21:39;;;;;;;14.30;8.20;;;8.70;99.90;;;;;;5022377;28;20696;-69
2023/10/19 02:24:07;;;;;;;14.43;7.45;;;8.70;99.90;;;;;;5022208;28;20053;-69
2023/10/19 02:26:37;;;;;;;10.77;7.28;;;8.70;99.90;;;;;;5012091;28;20505;-69
2023/10/19 02:29:07;;;;;;;11.88;6.40;;;8.70;99.90;;;;;;5020955;28;20038;-69
2023/10/19 02:31:37;;;;;;;12.40;6.63;;;8.70;99.90;;;;;;5020619;28;20045;-69
2023/10/19 02:34:04;;;;;;;10.88;6.72;;;8.70;99.90;;;;;;5016392;28;20053;-69
2023/10/19 02:36:31;;;;;;;10.15;6.30;;;8.70;99.90;;;;;;5001490;28;20052;-69
2023/10/19 02:39:07;;;;;;;10.90;6.43;;;8.70;99.90;;;;;;5010368;28;20450;-69
2023/10/19 02:41:47;;;;;;;10.95;6.55;;;8.70;99.90;;;;;;4995917;28;20040;-68
2023/10/19 02:46:50;;;;;;;9.00;5.97;;;8.70;99.90;;;;;;5013721;28;20038;-69
2023/10/19 02:49:29;;;;;;;10.02;5.88;;;8.70;99.90;;;;;;5020521;28;20515;-69
2023/10/19 02:51:58;;;;;;;9.60;5.68;;;8.70;99.90;;;;;;5000574;28;20041;-69
2023/10/19 02:54:24;;;;;;;9.15;5.57;;;8.80;99.90;;;;;;5014165;28;20051;-72
2023/10/19 02:56:58;;;;;;;8.77;4.90;;;8.70;99.90;;;;;;5015685;28;20045;-72
2023/10/19 02:59:25;;;;;;;8.02;5.22;;;8.70;99.90;;;;;;5017782;28;20045;-72
2023/10/19 03:02:03;;;;;;;9.40;5.00;;;8.70;99.90;;;;;;5017491;28;20049;-71
2023/10/19 03:04:29;;;;;;;8.30;5.07;;;8.70;99.90;;;;;;5016636;28;20041;-71
2023/10/19 03:06:57;;;;;;;7.97;4.97;;;8.80;99.90;;;;;;5016450;28;20081;-72
2023/10/19 03:09:28;;;;;;;7.60;4.53;;;8.70;99.90;;;;;;5031196;28;20554;-72
2023/10/19 03:12:05;;;;;;;6.90;4.20;;;8.80;99.90;;;;;;5008179;28;20112;-72
2023/10/19 03:14:31;;;;;;;7.88;4.55;;;8.70;99.90;;;;;;5013778;28;20045;-72
2023/10/19 03:16:59;;;;;;;;;;;8.80;99.90;;;;;;5013015;28;20129;-72
2023/10/19 03:19:25;;;;;;;9.68;4.05;;;8.80;99.90;;;;;;5018904;28;19928;-71
2023/10/19 03:22:00;;;;;;;6.03;3.85;;;8.80;99.90;;;;;;5017111;28;20417;-72
2023/10/19 03:27:26;;;;;;;7.30;4.35;;;8.80;99.90;;;;;;5014063;28;20042;-71
2023/10/19 03:29:56;;;;;;;5.22;3.63;;;8.80;99.90;;;;;;5016981;28;20163;-72
2023/10/19 03:32:26;;;;;;;6.57;3.67;;;8.80;99.90;;;;;;4979459;28;1145934;-72
2023/10/19 03:34:55;;;;;;;6.15;4.05;;;8.70;99.90;;;;;;5013012;28;20098;-72
2023/10/19 03:37:24;;;;;;;7.75;4.53;;;8.80;99.90;;;;;;5022389;28;20038;-72
2023/10/19 03:39:51;;;;;;;7.45;3.53;;;8.80;99.90;;;;;;5010835;28;20521;-69
2023/10/19 03:42:17;;;;;;;;;;;8.80;99.90;;;;;;5013336;28;20545;-69
2023/10/19 03:47:12;;;;;;;7.13;3.83;;;8.80;99.90;;;;;;5018400;28;20561;-72
2023/10/19 03:49:41;;;;;;;6.75;3.78;;;8.80;99.90;;;;;;5020151;28;20130;-72
2023/10/19 03:54:40;;;;;;;6.82;4.15;;;8.90;99.90;;;;;;5018674;28;20140;-72
2023/10/19 03:57:29;;;;;;;5.88;3.72;;;8.90;99.90;;;;;;5015504;28;20037;-72
2023/10/19 03:59:58;;;;;;;7.13;4.37;;;8.90;99.90;;;;;;5013608;28;20749;-72
2023/10/19 04:02:35;;;;;;;6.55;4.07;;;8.90;99.90;;;;;;4986009;28;20413;-72
2023/10/19 04:05:02;;;;;;;5.70;3.65;;;8.90;99.90;;;;;;5018807;28;20077;-72
2023/10/19 04:07:31;;;;;;;8.05;4.13;;;8.90;99.90;;;;;;5021017;28;20057;-73
2023/10/19 04:09:58;;;;;;;7.05;4.10;;;8.90;99.90;;;;;;5015868;28;20048;-72
2023/10/19 04:12:25;;;;;;;7.00;4.22;;;9.00;99.90;;;;;;5015691;28;20042;-73
2023/10/19 04:14:51;;;;;;;7.68;4.47;;;8.90;99.90;;;;;;5020867;28;20053;-73
2023/10/19 04:17:21;;;;;;;6.70;3.92;;;9.00;99.90;;;;;;5011037;28;20038;-73
2023/10/19 04:19:54;;;;;;;6.93;4.00;;;9.00;99.90;;;;;;4999572;28;20053;-72
2023/10/19 04:22:23;;;;;;;5.88;3.58;;;9.00;99.90;;;;;;5020856;28;20041;-73
2023/10/19 04:24:53;;;;;;;8.30;4.60;;;9.00;99.90;;;;;;4998442;28;20053;-72
2023/10/19 04:27:26;;;;;;;6.13;4.07;;;9.10;99.90;;;;;;5002692;28;20038;-72
2023/10/19 04:29:52;;;;;;;7.32;4.28;;;9.00;99.90;;;;;;5018113;28;20052;-73
2023/10/19 04:32:26;;;;;;;7.67;4.93;;;9.00;99.90;;;;;;5009554;28;20045;-73
2023/10/19 04:34:58;;;;;;;5.97;3.70;;;9.00;99.90;;;;;;5019669;28;20049;-72
2023/10/19 04:37:24;;;;;;;7.18;3.90;;;9.00;99.90;;;;;;5017194;28;20042;-73
2023/10/19 04:39:50;;;;;;;6.07;3.75;;;9.00;99.90;;;;;;5019142;28;20056;-72
2023/10/19 04:42:22;;;;;;;5.85;3.63;;;9.00;99.90;;;;;;5006461;28;20117;-72
2023/10/19 04:44:48;;;;;;;5.80;3.85;;;9.10;99.90;;;;;;5016016;28;20061;-72
2023/10/19 04:47:13;;;;;;;5.43;3.80;;;9.10;99.90;;;;;;5018539;28;20096;-72
2023/10/19 04:49:39;;;;;;;7.10;4.27;;;9.10;99.90;;;;;;5024739;28;20053;-72
2023/10/19 04:52:07;;;;;;;5.07;3.43;;;9.10;99.90;;;;;;5014847;28;20383;-72
2023/10/19 04:54:33;;;;;;;5.63;3.63;;;9.10;99.90;;;;;;5007818;28;20045;-72
2023/10/19 04:57:00;;;;;;;6.03;3.73;;;9.10;99.90;;;;;;5005806;28;20111;-73
2023/10/19 04:59:25;;;;;;;5.57;3.58;;;9.10;99.90;;;;;;5024290;28;20045;-73
2023/10/19 05:01:51;;;;;;;6.20;4.03;;;9.20;99.90;;;;;;5021047;28;20041;-72
2023/10/19 05:04:20;;;;;;;5.50;3.60;;;9.10;99.90;;;;;;5023121;28;20445;-73
2023/10/19 05:06:46;;;;;;;5.68;3.63;;;9.10;99.90;;;;;;5017100;28;20094;-73
2023/10/19 05:09:12;;;;;;;5.93;3.60;;;9.20;99.90;;;;;;5023548;28;20041;-73
2023/10/19 05:11:39;;;;;;;6.03;3.80;;;9.20;99.90;;;;;;5021896;28;20045;-73
2023/10/19 05:14:05;;;;;;;6.82;3.50;;;9.10;99.90;;;;;;5022175;28;20072;-73
2023/10/19 05:16:31;;;;;;;6.40;3.37;;;9.20;99.90;;;;;;5020956;28;20276;-73
2023/10/19 05:18:56;;;;;;;5.33;3.20;;;9.20;99.90;;;;;;5015778;28;20037;-72
2023/10/19 05:21:24;;;;;;;8.13;3.47;;;9.20;99.90;;;;;;5014786;28;20131;-72
2023/10/19 05:23:50;;;;;;;6.15;3.25;;;9.20;99.90;;;;;;5019123;28;20053;-72
2023/10/19 05:26:16;;;;;;;5.90;3.60;;;9.20;99.90;;;;;;5021162;28;20038;-72
2023/10/19 05:28:44;;;;;;;5.65;3.33;;;9.20;99.90;;;;;;5020619;28;20128;-73
2023/10/19 05:31:11;;;;;;;5.18;3.17;;;9.20;99.90;;;;;;5002969;28;20069;-73
2023/10/19 05:33:37;;;;;;;5.50;3.03;;;9.20;99.90;;;;;;5017308;28;20041;-76
2023/10/19 05:36:03;;;;;;;6.23;3.07;;;9.20;99.90;;;;;;5012219;28;20050;-74
2023/10/19 05:38:29;;;;;;;3.75;2.50;;;9.20;99.90;;;;;;5021575;28;20124;-75
2023/10/19 05:41:00;;;;;;;4.50;2.80;;;9.20;99.90;;;;;;5010770;28;20056;-73
2023/10/19 05:43:26;;;;;;;4.93;2.63;;;9.20;99.90;;;;;;5021507;28;20041;-74
2023/10/19 05:45:52;;;;;;;6.22;2.72;;;9.20;99.90;;;;;;5001546;28;20045;-74
2023/10/19 05:48:17;;;;;;;5.97;3.30;;;9.20;99.90;;;;;;5008446;28;20060;-76
2023/10/19 05:50:43;;;;;;;5.10;2.93;;;9.20;99.90;;;;;;5014684;28;20318;-75
2023/10/19 05:53:09;;;;;;;4.50;3.23;;;9.30;99.90;;;;;;5019199;28;20478;-75
2023/10/19 05:55:35;;;;;;;6.00;2.90;;;9.20;99.90;;;;;;5025091;28;20356;-74
2023/10/19 05:58:04;;;;;;;5.55;3.33;;;9.30;99.90;;;;;;5015257;28;20473;-75
2023/10/19 06:00:30;;;;;;;4.60;3.03;;;9.20;99.90;;;;;;5023126;28;20405;-75
2023/10/19 06:02:57;;;;;;;5.15;2.90;;;9.30;99.90;;;;;;5014397;28;20061;-75
2023/10/19 06:05:23;;;;;;;4.80;3.20;;;9.20;99.90;;;;;;4999553;28;20037;-74
2023/10/19 06:07:50;;;;;;;5.90;3.75;;;9.30;99.90;;;;;;5020295;28;20299;-74
2023/10/19 06:10:24;;;;;;;4.95;3.17;;;9.30;99.90;;;;;;5022570;28;20042;-76
2023/10/19 06:12:51;;;;;;;5.13;3.03;;;9.30;99.90;;;;;;5022077;28;20034;-75
2023/10/19 06:15:25;;;;;;;4.70;2.75;;;9.30;99.90;;;;;;5019608;28;20041;-74
2023/10/19 06:17:51;;;;;;;4.32;3.00;;;9.30;99.90;;;;;;5019594;28;20037;-75
2023/10/19 06:20:28;;;;;;;5.93;2.95;;;9.30;99.90;;;;;;5013971;28;20061;-75
2023/10/19 06:23:04;;;;;;;4.35;2.95;;;9.30;99.90;;;;;;4999909;28;20093;-75
2023/10/19 06:25:34;;;;;;;5.30;3.22;;;9.30;99.90;;;;;;5015686;28;20509;-74
2023/10/19 06:28:01;;;;;;;4.50;2.95;;;9.30;99.90;;;;;;5010336;28;20045;-75
2023/10/19 06:30:27;;;;;;;5.40;2.85;;;9.30;99.90;;;;;;5025390;28;20033;-75
2023/10/19 06:33:01;;;;;;;4.03;2.40;;;9.30;99.90;;;;;;5019444;28;20117;-75
2023/10/19 06:35:28;;;;;;;4.50;2.90;;;9.40;99.90;;;;;;5014361;28;20498;-75
2023/10/19 06:37:58;;;;;;;4.47;3.20;;;9.30;99.90;;;;;;5019065;28;20601;-75
2023/10/19 06:40:26;;;;;;;3.80;2.65;;;9.30;99.90;;;;;;5010076;28;20041;-75
2023/10/19 06:42:56;;;;;;;5.00;2.67;;;9.40;99.90;;;;;;5017170;28;20500;-77
2023/10/19 06:45:22;;;;;;;5.72;2.70;;;9.40;99.90;;;;;;5020168;28;20229;-75
2023/10/19 06:47:49;;;;;;;5.63;2.83;;;9.40;99.90;;;;;;5017855;28;20057;-76
2023/10/19 06:50:20;;;;;;;3.83;2.65;;;9.40;99.90;;;;;;5000742;28;20081;-75
2023/10/19 06:52:47;;;;;;;4.53;2.67;;;9.40;99.90;;;;;;5020844;28;20394;-75
2023/10/19 06:55:16;;;;;;;3.88;2.55;;;9.40;99.90;;;;;;5016960;28;20495;-75
2023/10/19 06:57:45;;;;;;;4.60;2.78;;;9.40;99.90;;;;;;5016977;28;20128;-75
2023/10/19 07:00:16;;;;;;;4.63;2.70;;;9.50;99.90;;;;;;5019356;28;20041;-75
2023/10/19 07:02:45;;;;;;;5.07;2.90;;;9.50;99.90;;;;;;5019001;28;20532;-75
2023/10/19 07:05:13;;;;;;;4.43;2.75;;;9.50;99.90;;;;;;4997126;28;20133;-74
2023/10/19 07:07:41;;;;;;;4.38;2.90;;;9.50;99.90;;;;;;4997938;28;20080;-75
2023/10/19 07:10:12;;;;;;;4.47;2.80;;;9.50;99.90;;;;;;5020321;28;20044;-75
2023/10/19 07:12:41;;;;;;;3.53;2.50;;;9.50;99.90;;;;;;5011426;28;20080;-74
2023/10/19 07:15:07;;;;;;;3.33;2.40;;;9.50;99.90;;;;;;5007119;28;20124;-75
2023/10/19 07:17:34;;;;;;;;;;;9.50;99.90;;;;;;5020081;28;20119;-75
2023/10/19 07:20:00;;;;;;;5.50;2.97;;;9.60;99.90;;;;;;5009239;28;19959;-75
2023/10/19 07:22:28;;;;;;;5.40;3.35;;;9.50;99.90;;;;;;5015916;28;20041;-75
2023/10/19 07:24:54;;;;;;;4.53;2.87;;;9.50;99.90;;;;;;5012101;28;20071;-75
2023/10/19 07:27:20;;;;;;;4.35;3.08;;;9.60;99.90;;;;;;5014765;28;20421;-74
2023/10/19 07:29:47;;;;;;;5.22;3.50;;;9.50;99.90;;;;;;5014143;28;20053;-75
2023/10/19 07:32:16;;;;;;;4.78;3.10;;;9.50;99.90;;;;;;4990960;28;20075;-76
2023/10/19 07:34:44;;;;;;;5.20;2.90;;;9.60;99.90;;;;;;5010187;28;20079;-75
2023/10/19 07:37:15;;;;;;;4.85;2.83;;;9.60;99.90;;;;;;5010044;28;20129;-75
2023/10/19 07:39:45;;;;;;;4.20;2.95;;;9.60;99.90;;;;;;5019017;28;20037;-75
2023/10/19 07:42:11;;;;;;;5.70;3.10;;;9.60;99.90;;;;;;5011437;28;20485;-74
2023/10/19 07:44:37;;;;;;;5.90;3.20;;;9.60;99.90;;;;;;4999384;28;20048;-75
2023/10/19 07:47:03;;;;;;;5.00;3.08;;;9.60;99.90;;;;;;5013273;28;20041;-75
2023/10/19 07:49:29;;;;;;;4.95;2.92;;;9.70;99.90;;;;;;4995635;28;20092;-75
2023/10/19 07:51:55;;;;;;;5.50;3.25;;;9.70;99.90;;;;;;5015033;28;20064;-75
2023/10/19 07:54:20;;;;;;;6.38;3.40;;;9.70;99.90;;;;;;5014147;28;20555;-76
2023/10/19 07:56:46;;;;;;;4.97;3.10;;;9.70;99.90;;;;;;5003050;28;20045;-76
2023/10/19 07:59:12;;;;;;;6.88;4.22;;;9.70;99.90;;;;;;5010112;28;20057;-75
2023/10/19 08:01:39;;;;;;;4.72;3.38;;;9.70;99.90;;;;;;5018798;28;20038;-75
2023/10/19 08:04:05;;;;;;;5.22;2.97;;;9.70;99.90;;;;;;5015110;28;20140;-73
2023/10/19 08:06:31;;;;;;;5.18;3.25;;;9.70;99.90;;;;;;5022300;28;20135;-72
2023/10/19 08:08:57;;;;;;;4.43;2.90;;;9.80;99.90;;;;;;5016829;28;20525;-72
2023/10/19 08:11:23;;;;;;;4.55;3.17;;;9.80;99.90;;;;;;5024088;28;20116;-72
2023/10/19 08:13:50;;;;;;;4.95;3.13;;;9.80;99.90;;;;;;5022817;28;20136;-74
2023/10/19 08:16:16;;;;;;;4.82;3.08;;;9.80;99.90;;;;;;5017227;28;20544;-72
2023/10/19 08:18:42;;;;;;;;;;;9.80;99.90;;;;;;5023056;28;20041;-72
2023/10/19 08:21:08;;;;;;;5.18;3.00;;;9.70;99.90;;;;;;5025697;28;19917;-72
2023/10/19 08:23:33;;;;;;;4.93;3.17;;;9.80;99.90;;;;;;5018461;28;20034;-71
2023/10/19 08:25:59;;;;;;;5.40;3.30;;;9.90;99.90;;;;;;5019996;28;20144;-76
2023/10/19 08:28:25;;;;;;;5.37;3.00;;;9.90;99.90;;;;;;5001820;28;20045;-73
2023/10/19 08:30:57;;;;;;;4.90;3.08;;;9.90;99.90;;;;;;4996351;28;20679;-73
2023/10/19 08:33:27;;;;;;;4.80;3.10;;;9.90;99.90;;;;;;5023806;28;20460;-73
2023/10/19 08:35:53;;;;;;;4.35;3.10;;;10.00;99.90;;;;;;5022605;28;20053;-72
2023/10/19 08:38:20;;;;;;;6.88;3.15;;;10.00;99.90;;;;;;5026925;28;20041;-72
2023/10/19 08:40:46;;;;;;;5.38;3.00;;;10.00;99.90;;;;;;5017872;28;20409;-77
2023/10/19 08:43:13;;;;;;;6.90;3.40;;;10.00;99.90;;;;;;5019470;28;20045;-72
2023/10/19 08:45:39;;;;;;;5.18;3.22;;;10.10;99.90;;;;;;5015209;28;20049;-74
2023/10/19 08:48:05;;;;;;;7.50;3.60;;;10.10;99.90;;;;;;5014584;28;20119;-75
2023/10/19 08:50:34;;;;;;;5.38;3.03;;;10.10;99.90;;;;;;5020047;28;20275;-77
2023/10/19 08:53:02;;;;;;;7.43;3.85;;;10.10;99.90;;;;;;5022090;28;20045;-72
2023/10/19 08:55:30;;;;;;;8.23;3.70;;;10.20;99.90;;;;;;4998874;28;20048;-73
2023/10/19 08:57:58;;;;;;;5.47;3.28;;;10.20;99.90;;;;;;5016457;28;20124;-74
2023/10/19 09:00:24;;;;;;;6.35;3.85;;;10.20;99.90;;;;;;5020129;28;20423;-74
2023/10/19 09:02:52;;;;;;;51.25;20.83;;;10.20;99.90;;;;;;4999836;28;20036;-74
2023/10/19 09:05:25;;;;;;;11.60;5.10;;;10.20;99.90;;;;;;5021706;28;20279;-74
2023/10/19 09:07:55;;;;;;;6.22;4.15;;;10.30;99.90;;;;;;5024161;28;20140;-72
2023/10/19 09:10:31;;;;;;;5.70;3.63;;;10.20;99.90;;;;;;5017108;28;20509;-73
2023/10/19 09:13:02;;;;;;;6.23;3.93;;;10.30;99.90;;;;;;5012458;28;20553;-73
2023/10/19 09:15:30;;;;;;;5.90;3.38;;;10.30;99.90;;;;;;5015694;28;20037;-73
2023/10/19 09:17:56;;;;;;;11.10;3.78;;;10.20;99.90;;;;;;5020074;28;20052;-73
2023/10/19 09:20:27;;;;;;;5.67;3.37;;;10.30;99.90;;;;;;5015580;28;20510;-73
2023/10/19 09:22:57;;;;;;;5.60;3.30;;;10.30;99.90;;;;;;5012462;28;20038;-74
2023/10/19 09:25:24;;;;;;;7.70;3.63;;;10.30;99.90;;;;;;5020297;28;20045;-73
2023/10/19 09:27:50;;;;;;;;;;;10.30;99.90;;;;;;5007979;28;20034;-73
2023/10/19 09:30:19;;;;;;;6.18;3.33;;;10.30;99.90;;;;;;5012967;28;19928;-73
2023/10/19 09:32:48;;;;;;;7.18;3.70;;;10.40;99.90;;;;;;5018793;28;20045;-73
2023/10/19 09:35:19;;;;;;;8.32;3.53;;;10.30;99.90;;;;;;5003543;28;20061;-73
2023/10/19 09:37:45;;;;;;;5.93;3.88;;;10.40;99.90;;;;;;5015682;28;20293;-73
2023/10/19 09:40:14;;;;;;;5.07;3.30;;;10.30;99.90;;;;;;5019557;28;20390;-73
2023/10/19 09:42:48;;;;;;;5.10;3.65;;;10.40;99.90;;;;;;5005184;28;20070;-73
2023/10/19 09:45:18;;;;;;;5.70;3.45;;;10.40;99.90;;;;;;5015592;28;20045;-73
2023/10/19 09:47:49;;;;;;;5.63;3.75;;;10.40;99.90;;;;;;5019908;28;20053;-73
2023/10/19 09:50:15;;;;;;;6.13;3.50;;;10.40;99.90;;;;;;5017566;28;20084;-73
2023/10/19 09:52:41;;;;;;;6.00;3.35;;;10.40;99.90;;;;;;5015172;28;20042;-73
2023/10/19 09:55:19;;;;;;;6.50;3.88;;;10.40;99.90;;;;;;5021981;28;20413;-73
2023/10/19 09:57:58;;;;;;;6.65;3.53;;;10.50;99.90;;;;;;5016637;28;20415;-73
2023/10/19 10:00:24;;;;;;;6.18;3.72;;;10.50;99.90;;;;;;5007376;28;20772;-73
2023/10/19 10:02:51;;;;;;;5.90;3.78;;;10.50;99.90;;;;;;5014140;28;20200;-73
2023/10/19 10:05:44;;;;;;;6.47;3.63;;;10.50;99.90;;;;;;5021960;28;20052;-73
2023/10/19 10:08:19;;;;;;;8.77;4.35;;;10.50;99.90;;;;;;5015245;28;20484;-73
2023/10/19 10:10:49;;;;;;;6.75;3.95;;;10.50;99.90;;;;;;5021588;28;20046;-73
2023/10/19 10:13:24;;;;;;;5.78;3.80;;;10.60;99.90;;;;;;5019889;28;20048;-73
2023/10/19 10:15:54;;;;;;;11.25;4.60;;;10.60;99.90;;;;;;5022645;28;20041;-73
2023/10/19 10:18:23;;;;;;;8.52;4.25;;;10.60;99.90;;;;;;5019946;28;20044;-73
2023/10/19 10:21:10;;;;;;;8.13;4.25;;;10.70;99.90;;;;;;5014755;28;20034;-73
2023/10/19 10:23:56;;;;;;;7.70;4.13;;;10.70;99.90;;;;;;5014677;28;20053;-73
2023/10/19 10:26:24;;;;;;;6.95;4.20;;;10.70;99.90;;;;;;5022313;28;20049;-73
2023/10/19 10:29:14;;;;;;;6.55;4.25;;;10.80;99.90;;;;;;5015681;28;20054;-73
2023/10/19 10:31:47;;;;;;;6.25;4.55;;;10.80;99.90;;;;;;5014532;28;20533;-73
2023/10/19 10:34:38;;;;;;;7.72;3.72;;;10.80;99.90;;;;;;4996921;28;20073;-73
2023/10/19 10:37:07;;;;;;;8.55;4.20;;;10.90;99.90;;;;;;5037644;28;20033;-73
2023/10/19 10:39:36;;;;;;;7.65;4.75;;;10.90;99.90;;;;;;5006758;28;20111;-73
2023/10/19 10:42:06;;;;;;;6.68;3.88;;;10.90;99.90;;;;;;5022476;28;20422;-73
2023/10/19 10:44:37;;;;;;;7.28;4.22;;;11.00;99.90;;;;;;5018590;28;20041;-73
2023/10/19 10:47:03;;;;;;;6.43;4.35;;;11.00;99.90;;;;;;4998837;28;20392;-73
2023/10/19 10:49:29;;;;;;;12.65;5.22;;;11.00;99.90;;;;;;5021033;28;20045;-73
2023/10/19 10:51:56;;;;;;;10.63;4.23;;;11.10;99.90;;;;;;5015817;28;20104;-73
2023/10/19 10:54:22;;;;;;;8.32;4.40;;;11.10;99.90;;;;;;5015059;28;20207;-73
2023/10/19 10:56:49;;;;;;;7.40;4.50;;;11.10;99.90;;;;;;4998338;28;20117;-73
2023/10/19 10:59:15;;;;;;;8.80;4.55;;;11.10;99.90;;;;;;5012441;28;20518;-73
2023/10/19 11:01:42;;;;;;;6.73;4.57;;;11.10;99.90;;;;;;5017019;28;20062;-73
2023/10/19 11:04:12;;;;;;;8.43;5.03;;;11.10;99.90;;;;;;4999930;28;20719;-73
2023/10/19 11:06:51;;;;;;;7.75;4.82;;;11.20;99.90;;;;;;5013955;28;20046;-74
2023/10/19 11:09:19;;;;;;;10.07;6.25;;;11.20;99.90;;;;;;5020672;28;20537;-73
2023/10/19 11:11:46;;;;;;;8.20;5.47;;;11.20;99.90;;;;;;5014247;28;20049;-78
2023/10/19 11:14:11;;;;;;;;;;;11.20;99.90;;;;;;5018109;28;20493;-75
2023/10/19 11:16:39;;;;;;;10.57;5.55;;;11.20;99.90;;;;;;5019939;28;19923;-78
2023/10/19 11:19:05;;;;;;;7.53;4.70;;;11.20;99.90;;;;;;4999747;28;20129;-73
2023/10/19 11:21:31;;;;;;;9.93;5.90;;;11.20;99.90;;;;;;5019610;28;20506;-73
2023/10/19 11:23:57;;;;;;;13.10;5.38;;;11.30;99.90;;;;;;5013558;28;20083;-73
2023/10/19 11:26:24;;;;;;;8.90;5.13;;;11.20;99.90;;;;;;5021300;28;20449;-73
2023/10/19 11:29:09;;;;;;;10.13;5.53;;;11.30;99.90;;;;;;5008967;28;20045;-73
2023/10/19 11:31:39;;;;;;;8.90;5.38;;;11.30;99.90;;;;;;5021112;28;20124;-73
2023/10/19 11:34:05;;;;;;;9.90;5.68;;;11.20;99.90;;;;;;4998633;28;20402;-73
2023/10/19 11:36:31;;;;;;;8.93;5.00;;;11.30;99.90;;;;;;5011747;28;20449;-73
2023/10/19 11:38:57;;;;;;;9.23;4.90;;;11.30;99.90;;;;;;5012357;28;20129;-72
2023/10/19 11:41:23;;;;;;;8.23;5.28;;;11.30;99.90;;;;;;5014551;28;20506;-72
2023/10/19 11:43:49;;;;;;;7.20;4.87;;;11.40;99.90;;;;;;5023263;28;20057;-73
2023/10/19 11:46:15;;;;;;;12.80;6.38;;;11.40;99.90;;;;;;5017152;28;20053;-73
2023/10/19 11:48:44;;;;;;;12.60;7.13;;;11.40;99.90;;;;;;5001244;28;20409;-73
2023/10/19 11:51:14;;;;;;;9.13;5.40;;;11.40;99.90;;;;;;5020567;28;20041;-73
2023/10/19 11:53:42;;;;;;;7.55;4.80;;;11.40;99.90;;;;;;5018564;28;20042;-73
2023/10/19 11:56:10;;;;;;;8.95;5.10;;;11.50;99.90;;;;;;5019593;28;20049;-73
2023/10/19 11:58:37;;;;;;;7.18;4.57;;;11.60;99.90;;;;;;5017940;28;20507;-73
2023/10/19 12:01:07;;;;;;;9.27;5.32;;;11.60;99.90;;;;;;5015832;28;20420;-73
2023/10/19 12:03:35;;;;;;;8.30;5.25;;;11.60;99.90;;;;;;5002570;28;20046;-73
2023/10/19 12:06:04;;;;;;;8.85;5.43;;;11.60;99.90;;;;;;5013395;28;20426;-73
2023/10/19 12:08:29;;;;;;;9.25;5.57;;;11.60;99.90;;;;;;5025244;28;20136;-73
2023/10/19 12:10:55;;;;;;;12.10;6.47;;;11.60;99.90;;;;;;5022415;28;20120;-73
2023/10/19 12:13:20;;;;;;;8.03;5.17;;;11.60;99.90;;;;;;5025083;28;20040;-73
2023/10/19 12:15:51;;;;;;;11.90;6.10;;;11.50;99.90;;;;;;5020450;28;20082;-73
2023/10/19 12:18:20;;;;;;;10.77;5.35;;;11.60;99.90;;;;;;5026744;28;20037;-73
2023/10/19 12:20:47;;;;;;;9.90;6.10;;;11.60;99.90;;;;;;5027670;28;20076;-73
2023/10/19 12:23:13;;;;;;;8.43;6.22;;;11.50;99.90;;;;;;5021173;28;20282;-75
2023/10/19 12:25:39;;;;;;;;;;;11.50;99.90;;;;;;5020007;28;20041;-74
2023/10/19 12:28:05;;;;;;;14.45;7.50;;;11.50;99.90;;;;;;5016655;28;19924;-75
2023/10/19 12:30:38;;;;;;;10.95;6.38;;;11.50;99.90;;;;;;5021406;28;20113;-74
2023/10/19 12:33:11;;;;;;;14.73;6.75;;;11.40;99.90;;;;;;4994576;28;20037;-74
2023/10/19 12:35:51;;;;;;;10.60;5.82;;;11.40;99.90;;;;;;5003233;28;20513;-74
2023/10/19 12:38:19;;;;;;;10.02;6.35;;;11.40;99.90;;;;;;5020809;28;20046;-75
2023/10/19 12:40:54;;;;;;;9.68;5.45;;;11.40;99.90;;;;;;5020547;28;20111;-74
2023/10/19 12:43:21;;;;;;;12.07;6.82;;;11.40;99.90;;;;;;5020041;28;20092;-71
2023/10/19 12:45:50;;;;;;;9.70;5.80;;;11.40;99.90;;;;;;5016452;28;20042;-70
2023/10/19 12:48:17;;;;;;;11.30;6.43;;;11.40;99.90;;;;;;5022668;28;20064;-70
2023/10/19 12:50:43;;;;;;;10.18;5.63;;;11.30;99.90;;;;;;5024152;28;20114;-70
2023/10/19 12:53:09;;;;;;;16.35;6.25;;;11.30;99.90;;;;;;5027248;28;20124;-71
2023/10/19 12:55:37;;;;;;;15.38;6.03;;;11.30;99.90;;;;;;5017595;28;20394;-70
2023/10/19 12:58:07;;;;;;;9.00;5.60;;;11.20;99.90;;;;;;5027736;28;20120;-71
2023/10/19 13:00:40;;;;;;;9.65;5.10;;;11.20;99.90;;;;;;5024784;28;20484;-71
2023/10/19 13:03:08;;;;;;;10.38;5.93;;;11.20;99.90;;;;;;5022892;28;20386;-71
2023/10/19 13:05:35;;;;;;;11.40;6.03;;;11.20;99.90;;;;;;5025445;28;20044;-70
2023/10/19 13:08:01;;;;;;;11.82;6.15;;;11.20;99.90;;;;;;5016248;28;20041;-70
2023/10/19 13:10:33;;;;;;;;;;;11.10;99.90;;;;;;5013812;28;20038;-70
2023/10/19 13:13:03;;;;;;;10.63;5.07;;;11.10;99.90;;;;;;5013437;28;19963;-71
2023/10/19 13:15:34;;;;;;;8.20;4.82;;;11.10;99.90;;;;;;5015895;28;20041;-71
2023/10/19 13:18:05;;;;;;;8.35;4.53;;;11.00;99.90;;;;;;5019140;28;20177;-71
2023/10/19 13:20:35;;;;;;;7.75;4.55;;;11.00;99.90;;;;;;5009004;28;20092;-71
2023/10/19 13:23:15;;;;;;;9.57;4.35;;;11.00;99.90;;;;;;5006415;28;20041;-71